sensor_id;sensor_type;location;lat;lon;timestamp;pressure;altitude;pressure_sealevel;temperature;humidity
30343;BME280;17145;49.902;8.680;'2023-05-14 01:59:11';100190;;;11;52
30343;BME280;17145;49.902;8.680;'2023-05-14 02:01:40';100180;;;11;52
30343;BME280;17145;49.902;8.680;'2023-05-14 02:04:07';100180;;;11;52
30343;BME280;17145;49.902;8.680;'2023-05-14 02:06:35';100190;;;11;52
30343;BME280;17145;49.902;8.680;'2023-05-14 02:09:02';100180;;;11;52
30343;BME280;17145;49.902;8.680;'2023-05-14 02:11:30';100190;;;11;52
30343;BME280;17145;49.902;8.680;'2023-05-14 02:13:57';100190;;;11;52
30343;BME280;17145;49.902;8.680;'2023-05-14 02:16:25';100190;;;11;52
30343;BME280;17145;49.902;8.680;'2023-05-14 02:18:52';100190;;;11;53
30343;BME280;17145;49.902;8.680;'2023-05-14 02:21:19';100190;;;11;53
30343;BME280;17145;49.902;8.680;'2023-05-14 02:23:47';100190;;;11;53
30343;BME280;17145;49.902;8.680;'2023-05-14 02:26:14';100180;;;11;53
30343;BME280;17145;49.902;8.680;'2023-05-14 02:28:42';100180;;;11;53
30343;BME280;17145;49.902;8.680;'2023-05-14 02:31:09';100180;;;11;53
30343;BME280;17145;49.902;8.680;'2023-05-14 02:33:37';100170;;;11;53
30343;BME280;17145;49.902;8.680;'2023-05-14 02:36:04';100170;;;11;53
30343;BME280;17145;49.902;8.680;'2023-05-14 02:38:32';100170;;;11;53
30343;BME280;17145;49.902;8.680;'2023-05-14 02:40:59';100160;;;11;53
30343;BME280;17145;49.902;8.680;'2023-05-14 02:43:27';100160;;;11;53
30343;BME280;17145;49.902;8.680;'2023-05-14 02:45:54';100160;;;11;52
30343;BME280;17145;49.902;8.680;'2023-05-14 02:48:23';100160;;;11;53
30343;BME280;17145;49.902;8.680;'2023-05-14 02:50:51';100150;;;11;53
30343;BME280;17145;49.902;8.680;'2023-05-14 02:53:19';100160;;;11;53
30343;BME280;17145;49.902;8.680;'2023-05-14 02:55:49';100160;;;11;53
30343;BME280;17145;49.902;8.680;'2023-05-14 02:58:17';100150;;;11;53
30343;BME280;17145;49.902;8.680;'2023-05-14 03:00:45';100150;;;11;53
30343;BME280;17145;49.902;8.680;'2023-05-14 03:03:12';100150;;;11;53
30343;BME280;17145;49.902;8.680;'2023-05-14 03:05:49';100150;;;11;53
30343;BME280;17145;49.902;8.680;'2023-05-14 03:08:24';100150;;;11;52
30343;BME280;17145;49.902;8.680;'2023-05-14 03:10:57';100150;;;11;53
30343;BME280;17145;49.902;8.680;'2023-05-14 03:13:31';100150;;;11;53
30343;BME280;17145;49.902;8.680;'2023-05-14 03:16:00';100150;;;11;52
30343;BME280;17145;49.902;8.680;'2023-05-14 03:18:30';100150;;;11;53
30343;BME280;17145;49.902;8.680;'2023-05-14 03:20:57';100150;;;11;53
30343;BME280;17145;49.902;8.680;'2023-05-14 03:23:25';100150;;;11;53
30343;BME280;17145;49.902;8.680;'2023-05-14 03:25:52';100150;;;11;53
30343;BME280;17145;49.902;8.680;'2023-05-14 03:28:25';100150;;;11;53
30343;BME280;17145;49.902;8.680;'2023-05-14 03:31:00';100150;;;11;53
30343;BME280;17145;49.902;8.680;'2023-05-14 03:33:30';100150;;;11;53
30343;BME280;17145;49.902;8.680;'2023-05-14 03:35:58';100150;;;11;53
30343;BME280;17145;49.902;8.680;'2023-05-14 03:38:26';100150;;;11;53
30343;BME280;17145;49.902;8.680;'2023-05-14 03:40:55';100160;;;11;53
30343;BME280;17145;49.902;8.680;'2023-05-14 03:43:23';100160;;;11;53
30343;BME280;17145;49.902;8.680;'2023-05-14 03:45:50';100160;;;11;53
30343;BME280;17145;49.902;8.680;'2023-05-14 03:48:18';100160;;;10;53
30343;BME280;17145;49.902;8.680;'2023-05-14 03:50:45';100150;;;11;53
30343;BME280;17145;49.902;8.680;'2023-05-14 03:53:13';100150;;;10;53
30343;BME280;17145;49.902;8.680;'2023-05-14 03:55:40';100150;;;11;53
30343;BME280;17145;49.902;8.680;'2023-05-14 03:58:08';100150;;;11;53
30343;BME280;17145;49.902;8.680;'2023-05-14 04:00:35';100140;;;11;53
30343;BME280;17145;49.902;8.680;'2023-05-14 04:03:03';100140;;;11;53
30343;BME280;17145;49.902;8.680;'2023-05-14 04:05:30';100140;;;11;54
30343;BME280;17145;49.902;8.680;'2023-05-14 04:07:57';100140;;;10;54
30343;BME280;17145;49.902;8.680;'2023-05-14 04:10:25';100140;;;11;54
30343;BME280;17145;49.902;8.680;'2023-05-14 04:12:52';100140;;;11;54
30343;BME280;17145;49.902;8.680;'2023-05-14 04:15:20';100140;;;10;54
30343;BME280;17145;49.902;8.680;'2023-05-14 04:17:47';100140;;;11;54
30343;BME280;17145;49.902;8.680;'2023-05-14 04:20:15';100140;;;11;54
30343;BME280;17145;49.902;8.680;'2023-05-14 04:22:42';100140;;;11;54
30343;BME280;17145;49.902;8.680;'2023-05-14 04:25:10';100140;;;11;54
30343;BME280;17145;49.902;8.680;'2023-05-14 04:27:37';100140;;;11;54
30343;BME280;17145;49.902;8.680;'2023-05-14 04:30:06';100130;;;11;54
30343;BME280;17145;49.902;8.680;'2023-05-14 04:32:33';100130;;;11;54
30343;BME280;17145;49.902;8.680;'2023-05-14 04:35:00';100130;;;11;54
30343;BME280;17145;49.902;8.680;'2023-05-14 04:37:28';100130;;;11;54
30343;BME280;17145;49.902;8.680;'2023-05-14 04:39:55';100130;;;11;54
30343;BME280;17145;49.902;8.680;'2023-05-14 04:42:22';100130;;;11;54
30343;BME280;17145;49.902;8.680;'2023-05-14 04:44:50';100130;;;10;54
30343;BME280;17145;49.902;8.680;'2023-05-14 04:47:17';100130;;;10;54
30343;BME280;17145;49.902;8.680;'2023-05-14 04:49:45';100130;;;10;54
30343;BME280;17145;49.902;8.680;'2023-05-14 04:52:12';100130;;;10;54
30343;BME280;17145;49.902;8.680;'2023-05-14 04:54:39';100140;;;10;54
30343;BME280;17145;49.902;8.680;'2023-05-14 04:57:07';100140;;;10;54
30343;BME280;17145;49.902;8.680;'2023-05-14 04:59:34';100140;;;10;54
30343;BME280;17145;49.902;8.680;'2023-05-14 05:02:02';100140;;;10;54
30343;BME280;17145;49.902;8.680;'2023-05-14 05:04:29';100140;;;10;54
30343;BME280;17145;49.902;8.680;'2023-05-14 05:06:56';100130;;;10;54
30343;BME280;17145;49.902;8.680;'2023-05-14 05:09:24';100130;;;10;54
30343;BME280;17145;49.902;8.680;'2023-05-14 05:11:51';100120;;;10;54
30343;BME280;17145;49.902;8.680;'2023-05-14 05:14:18';100120;;;10;54
30343;BME280;17145;49.902;8.680;'2023-05-14 05:16:46';100120;;;10;54
30343;BME280;17145;49.902;8.680;'2023-05-14 05:19:13';100120;;;10;54
30343;BME280;17145;49.902;8.680;'2023-05-14 05:21:41';100120;;;10;54
30343;BME280;17145;49.902;8.680;'2023-05-14 05:24:08';100130;;;10;54
30343;BME280;17145;49.902;8.680;'2023-05-14 05:26:36';100130;;;10;54
30343;BME280;17145;49.902;8.680;'2023-05-14 05:29:03';100130;;;10;54
30343;BME280;17145;49.902;8.680;'2023-05-14 05:31:31';100130;;;10;54
30343;BME280;17145;49.902;8.680;'2023-05-14 05:33:58';100130;;;10;54
30343;BME280;17145;49.902;8.680;'2023-05-14 05:36:25';100130;;;10;54
30343;BME280;17145;49.902;8.680;'2023-05-14 05:38:53';100120;;;10;54
30343;BME280;17145;49.902;8.680;'2023-05-14 05:41:20';100120;;;10;53
30343;BME280;17145;49.902;8.680;'2023-05-14 05:43:47';100120;;;10;54
30343;BME280;17145;49.902;8.680;'2023-05-14 05:46:15';100120;;;10;53
30343;BME280;17145;49.902;8.680;'2023-05-14 05:48:42';100120;;;10;53
30343;BME280;17145;49.902;8.680;'2023-05-14 05:51:09';100120;;;10;54
30343;BME280;17145;49.902;8.680;'2023-05-14 05:53:37';100120;;;10;54
30343;BME280;17145;49.902;8.680;'2023-05-14 05:56:04';100130;;;10;54
30343;BME280;17145;49.902;8.680;'2023-05-14 05:58:32';100130;;;10;54
30343;BME280;17145;49.902;8.680;'2023-05-14 06:00:59';100120;;;10;54
30343;BME280;17145;49.902;8.680;'2023-05-14 06:03:26';100120;;;10;54
30343;BME280;17145;49.902;8.680;'2023-05-14 06:05:54';100120;;;10;54
30343;BME280;17145;49.902;8.680;'2023-05-14 06:08:21';100120;;;10;54
30343;BME280;17145;49.902;8.680;'2023-05-14 06:10:48';100120;;;10;54
30343;BME280;17145;49.902;8.680;'2023-05-14 06:13:16';100130;;;10;54
30343;BME280;17145;49.902;8.680;'2023-05-14 06:15:44';100130;;;10;55
30343;BME280;17145;49.902;8.680;'2023-05-14 06:18:11';100130;;;10;54
30343;BME280;17145;49.902;8.680;'2023-05-14 06:20:38';100130;;;10;54
30343;BME280;17145;49.902;8.680;'2023-05-14 06:23:06';100130;;;10;55
30343;BME280;17145;49.902;8.680;'2023-05-14 06:25:33';100130;;;10;55
30343;BME280;17145;49.902;8.680;'2023-05-14 06:28:00';100130;;;10;55
30343;BME280;17145;49.902;8.680;'2023-05-14 06:30:28';100130;;;10;55
30343;BME280;17145;49.902;8.680;'2023-05-14 06:32:55';100130;;;10;55
30343;BME280;17145;49.902;8.680;'2023-05-14 06:35:24';100130;;;10;55
30343;BME280;17145;49.902;8.680;'2023-05-14 06:37:51';100130;;;10;55
30343;BME280;17145;49.902;8.680;'2023-05-14 06:40:18';100140;;;10;55
30343;BME280;17145;49.902;8.680;'2023-05-14 06:42:46';100130;;;10;55
30343;BME280;17145;49.902;8.680;'2023-05-14 06:45:13';100130;;;10;55
30343;BME280;17145;49.902;8.680;'2023-05-14 06:47:41';100130;;;10;55
30343;BME280;17145;49.902;8.680;'2023-05-14 06:50:08';100130;;;10;55
30343;BME280;17145;49.902;8.680;'2023-05-14 06:52:36';100130;;;10;55
30343;BME280;17145;49.902;8.680;'2023-05-14 06:55:05';100130;;;10;55
30343;BME280;17145;49.902;8.680;'2023-05-14 06:57:32';100130;;;10;55
30343;BME280;17145;49.902;8.680;'2023-05-14 07:00:00';100140;;;10;56
30343;BME280;17145;49.902;8.680;'2023-05-14 07:02:27';100140;;;11;56
30343;BME280;17145;49.902;8.680;'2023-05-14 07:04:54';100140;;;11;56
30343;BME280;17145;49.902;8.680;'2023-05-14 07:07:22';100130;;;10;57
30343;BME280;17145;49.902;8.680;'2023-05-14 07:09:49';100130;;;11;56
30343;BME280;17145;49.902;8.680;'2023-05-14 07:12:17';100140;;;11;57
30343;BME280;17145;49.902;8.680;'2023-05-14 07:14:44';100140;;;11;57
30343;BME280;17145;49.902;8.680;'2023-05-14 07:17:11';100140;;;11;57
30343;BME280;17145;49.902;8.680;'2023-05-14 07:19:39';100140;;;11;57
30343;BME280;17145;49.902;8.680;'2023-05-14 07:22:06';100140;;;11;57
30343;BME280;17145;49.902;8.680;'2023-05-14 07:24:34';100140;;;11;56
30343;BME280;17145;49.902;8.680;'2023-05-14 07:27:01';100140;;;11;56
30343;BME280;17145;49.902;8.680;'2023-05-14 07:29:29';100140;;;11;56
30343;BME280;17145;49.902;8.680;'2023-05-14 07:31:56';100140;;;11;56
30343;BME280;17145;49.902;8.680;'2023-05-14 07:34:24';100140;;;11;55
30343;BME280;17145;49.902;8.680;'2023-05-14 07:36:51';100140;;;11;56
30343;BME280;17145;49.902;8.680;'2023-05-14 07:39:19';100140;;;12;56
30343;BME280;17145;49.902;8.680;'2023-05-14 07:41:46';100140;;;12;55
30343;BME280;17145;49.902;8.680;'2023-05-14 07:44:13';100140;;;12;55
30343;BME280;17145;49.902;8.680;'2023-05-14 07:46:41';100140;;;12;55
30343;BME280;17145;49.902;8.680;'2023-05-14 07:49:09';100150;;;12;55
30343;BME280;17145;49.902;8.680;'2023-05-14 07:51:36';100150;;;12;55
30343;BME280;17145;49.902;8.680;'2023-05-14 07:54:04';100150;;;12;55
30343;BME280;17145;49.902;8.680;'2023-05-14 07:56:31';100140;;;12;55
30343;BME280;17145;49.902;8.680;'2023-05-14 07:58:58';100140;;;12;55
30343;BME280;17145;49.902;8.680;'2023-05-14 08:01:26';100140;;;12;55
30343;BME280;17145;49.902;8.680;'2023-05-14 08:03:54';100140;;;12;55
30343;BME280;17145;49.902;8.680;'2023-05-14 08:06:21';100140;;;12;54
30343;BME280;17145;49.902;8.680;'2023-05-14 08:08:49';100140;;;12;54
30343;BME280;17145;49.902;8.680;'2023-05-14 08:11:16';100140;;;12;54
30343;BME280;17145;49.902;8.680;'2023-05-14 08:13:43';100140;;;13;54
30343;BME280;17145;49.902;8.680;'2023-05-14 08:16:11';100140;;;13;54
30343;BME280;17145;49.902;8.680;'2023-05-14 08:18:38';100140;;;13;53
30343;BME280;17145;49.902;8.680;'2023-05-14 08:21:05';100140;;;13;53
30343;BME280;17145;49.902;8.680;'2023-05-14 08:23:33';100140;;;13;52
30343;BME280;17145;49.902;8.680;'2023-05-14 08:26:00';100140;;;13;52
30343;BME280;17145;49.902;8.680;'2023-05-14 08:28:28';100140;;;13;52
30343;BME280;17145;49.902;8.680;'2023-05-14 08:30:55';100140;;;13;52
30343;BME280;17145;49.902;8.680;'2023-05-14 08:33:23';100130;;;13;51
30343;BME280;17145;49.902;8.680;'2023-05-14 08:35:50';100130;;;13;51
30343;BME280;17145;49.902;8.680;'2023-05-14 08:38:17';100130;;;13;51
30343;BME280;17145;49.902;8.680;'2023-05-14 08:40:45';100130;;;13;51
30343;BME280;17145;49.902;8.680;'2023-05-14 08:43:12';100120;;;13;50
30343;BME280;17145;49.902;8.680;'2023-05-14 08:45:39';100120;;;13;50
30343;BME280;17145;49.902;8.680;'2023-05-14 08:48:07';100120;;;14;49
30343;BME280;17145;49.902;8.680;'2023-05-14 08:50:34';100120;;;13;50
30343;BME280;17145;49.902;8.680;'2023-05-14 08:53:02';100120;;;13;49
30343;BME280;17145;49.902;8.680;'2023-05-14 08:55:29';100120;;;14;49
30343;BME280;17145;49.902;8.680;'2023-05-14 08:57:57';100120;;;13;49
30343;BME280;17145;49.902;8.680;'2023-05-14 09:00:24';100120;;;13;49
30343;BME280;17145;49.902;8.680;'2023-05-14 09:02:52';100120;;;13;49
30343;BME280;17145;49.902;8.680;'2023-05-14 09:05:19';100120;;;14;49
30343;BME280;17145;49.902;8.680;'2023-05-14 09:07:46';100120;;;14;49
30343;BME280;17145;49.902;8.680;'2023-05-14 09:10:14';100120;;;14;49
30343;BME280;17145;49.902;8.680;'2023-05-14 09:12:41';100120;;;14;48
30343;BME280;17145;49.902;8.680;'2023-05-14 09:15:09';100120;;;14;48
30343;BME280;17145;49.902;8.680;'2023-05-14 09:17:37';100120;;;14;48
30343;BME280;17145;49.902;8.680;'2023-05-14 09:20:05';100110;;;14;48
30343;BME280;17145;49.902;8.680;'2023-05-14 09:22:32';100120;;;14;48
30343;BME280;17145;49.902;8.680;'2023-05-14 09:25:00';100110;;;14;48
30343;BME280;17145;49.902;8.680;'2023-05-14 09:27:27';100110;;;14;47
30343;BME280;17145;49.902;8.680;'2023-05-14 09:29:55';100110;;;14;48
30343;BME280;17145;49.902;8.680;'2023-05-14 09:32:22';100100;;;14;48
30343;BME280;17145;49.902;8.680;'2023-05-14 09:34:49';100100;;;14;48
30343;BME280;17145;49.902;8.680;'2023-05-14 09:37:17';100100;;;14;48
30343;BME280;17145;49.902;8.680;'2023-05-14 09:39:45';100100;;;14;47
30343;BME280;17145;49.902;8.680;'2023-05-14 09:42:12';100100;;;14;48
30343;BME280;17145;49.902;8.680;'2023-05-14 09:44:39';100090;;;14;48
30343;BME280;17145;49.902;8.680;'2023-05-14 09:47:07';100100;;;14;48
30343;BME280;17145;49.902;8.680;'2023-05-14 09:49:34';100100;;;14;48
30343;BME280;17145;49.902;8.680;'2023-05-14 09:52:02';100090;;;14;48
30343;BME280;17145;49.902;8.680;'2023-05-14 09:54:29';100090;;;14;48
30343;BME280;17145;49.902;8.680;'2023-05-14 09:56:56';100090;;;14;47
30343;BME280;17145;49.902;8.680;'2023-05-14 09:59:24';100090;;;14;47
30343;BME280;17145;49.902;8.680;'2023-05-14 10:01:51';100090;;;14;47
30343;BME280;17145;49.902;8.680;'2023-05-14 10:04:18';100080;;;14;48
30343;BME280;17145;49.902;8.680;'2023-05-14 10:06:46';100080;;;14;48
30343;BME280;17145;49.902;8.680;'2023-05-14 10:09:13';100080;;;14;47
30343;BME280;17145;49.902;8.680;'2023-05-14 10:11:41';100070;;;15;47
30343;BME280;17145;49.902;8.680;'2023-05-14 10:14:08';100070;;;15;47
30343;BME280;17145;49.902;8.680;'2023-05-14 10:16:36';100070;;;15;45
30343;BME280;17145;49.902;8.680;'2023-05-14 10:19:03';100070;;;15;45
30343;BME280;17145;49.902;8.680;'2023-05-14 10:21:31';100070;;;15;45
30343;BME280;17145;49.902;8.680;'2023-05-14 10:23:58';100070;;;15;46
30343;BME280;17145;49.902;8.680;'2023-05-14 10:26:26';100070;;;15;45
30343;BME280;17145;49.902;8.680;'2023-05-14 10:28:53';100080;;;16;45
30343;BME280;17145;49.902;8.680;'2023-05-14 10:31:20';100080;;;15;45
30343;BME280;17145;49.902;8.680;'2023-05-14 10:33:48';100070;;;16;44
30343;BME280;17145;49.902;8.680;'2023-05-14 10:36:15';100070;;;16;44
30343;BME280;17145;49.902;8.680;'2023-05-14 10:38:43';100060;;;16;45
30343;BME280;17145;49.902;8.680;'2023-05-14 10:41:13';100060;;;16;45
30343;BME280;17145;49.902;8.680;'2023-05-14 10:43:48';100060;;;16;44
30343;BME280;17145;49.902;8.680;'2023-05-14 10:46:16';100050;;;16;43
30343;BME280;17145;49.902;8.680;'2023-05-14 10:48:47';100050;;;16;43
30343;BME280;17145;49.902;8.680;'2023-05-14 10:51:14';100040;;;16;42
30343;BME280;17145;49.902;8.680;'2023-05-14 10:53:41';100050;;;16;42
30343;BME280;17145;49.902;8.680;'2023-05-14 10:56:09';100040;;;16;42
30343;BME280;17145;49.902;8.680;'2023-05-14 10:58:37';100040;;;16;43
30343;BME280;17145;49.902;8.680;'2023-05-14 11:01:04';100040;;;16;43
30343;BME280;17145;49.902;8.680;'2023-05-14 11:03:33';100040;;;16;43
30343;BME280;17145;49.902;8.680;'2023-05-14 11:06:01';100030;;;16;43
30343;BME280;17145;49.902;8.680;'2023-05-14 11:08:29';100030;;;16;42
30343;BME280;17145;49.902;8.680;'2023-05-14 11:10:56';100030;;;16;42
30343;BME280;17145;49.902;8.680;'2023-05-14 11:13:23';100030;;;17;42
30343;BME280;17145;49.902;8.680;'2023-05-14 11:15:51';100020;;;17;42
30343;BME280;17145;49.902;8.680;'2023-05-14 11:18:19';100020;;;17;42
30343;BME280;17145;49.902;8.680;'2023-05-14 11:20:47';100020;;;17;42
30343;BME280;17145;49.902;8.680;'2023-05-14 11:23:14';100020;;;17;40
30343;BME280;17145;49.902;8.680;'2023-05-14 11:25:42';100020;;;17;40
30343;BME280;17145;49.902;8.680;'2023-05-14 11:28:09';100010;;;17;40
30343;BME280;17145;49.902;8.680;'2023-05-14 11:30:36';100010;;;17;40
30343;BME280;17145;49.902;8.680;'2023-05-14 11:33:04';100020;;;17;41
30343;BME280;17145;49.902;8.680;'2023-05-14 11:35:31';100010;;;17;40
30343;BME280;17145;49.902;8.680;'2023-05-14 11:37:58';100010;;;17;41
30343;BME280;17145;49.902;8.680;'2023-05-14 11:40:26';100010;;;17;40
30343;BME280;17145;49.902;8.680;'2023-05-14 11:42:53';100010;;;17;40
30343;BME280;17145;49.902;8.680;'2023-05-14 11:45:21';100010;;;17;40
30343;BME280;17145;49.902;8.680;'2023-05-14 11:47:48';100010;;;17;40
30343;BME280;17145;49.902;8.680;'2023-05-14 11:50:16';100010;;;16;41
30343;BME280;17145;49.902;8.680;'2023-05-14 11:52:43';100010;;;16;41
30343;BME280;17145;49.902;8.680;'2023-05-14 11:55:11';100010;;;17;41
30343;BME280;17145;49.902;8.680;'2023-05-14 11:57:38';100010;;;17;41
30343;BME280;17145;49.902;8.680;'2023-05-14 12:00:07';100020;;;17;41
30343;BME280;17145;49.902;8.680;'2023-05-14 12:02:36';100020;;;17;42
30343;BME280;17145;49.902;8.680;'2023-05-14 12:05:04';100020;;;17;42
30343;BME280;17145;49.902;8.680;'2023-05-14 12:07:38';100010;;;17;40
30343;BME280;17145;49.902;8.680;'2023-05-14 12:10:09';100010;;;17;40
30343;BME280;17145;49.902;8.680;'2023-05-14 12:12:39';100010;;;16;40
30343;BME280;17145;49.902;8.680;'2023-05-14 12:15:15';100010;;;16;40
30343;BME280;17145;49.902;8.680;'2023-05-14 12:17:47';100020;;;16;41
30343;BME280;17145;49.902;8.680;'2023-05-14 12:20:15';100020;;;17;41
30343;BME280;17145;49.902;8.680;'2023-05-14 12:22:43';100020;;;17;41
30343;BME280;17145;49.902;8.680;'2023-05-14 12:25:10';100020;;;16;42
30343;BME280;17145;49.902;8.680;'2023-05-14 12:27:39';100010;;;17;40
30343;BME280;17145;49.902;8.680;'2023-05-14 12:30:11';100010;;;17;41
30343;BME280;17145;49.902;8.680;'2023-05-14 12:32:39';100010;;;17;41
30343;BME280;17145;49.902;8.680;'2023-05-14 12:35:16';100010;;;17;41
30343;BME280;17145;49.902;8.680;'2023-05-14 12:37:43';100020;;;17;41
30343;BME280;17145;49.902;8.680;'2023-05-14 12:40:11';100010;;;17;41
30343;BME280;17145;49.902;8.680;'2023-05-14 12:42:39';100010;;;17;41
30343;BME280;17145;49.902;8.680;'2023-05-14 12:45:09';100010;;;17;42
30343;BME280;17145;49.902;8.680;'2023-05-14 12:47:38';100010;;;17;42
30343;BME280;17145;49.902;8.680;'2023-05-14 12:50:09';100010;;;17;41
30343;BME280;17145;49.902;8.680;'2023-05-14 12:52:37';100010;;;17;39
30343;BME280;17145;49.902;8.680;'2023-05-14 12:55:05';100000;;;17;39
30343;BME280;17145;49.902;8.680;'2023-05-14 12:57:38';100000;;;17;39
30343;BME280;17145;49.902;8.680;'2023-05-14 13:00:07';100000;;;17;40
30343;BME280;17145;49.902;8.680;'2023-05-14 13:02:36';100000;;;17;40
30343;BME280;17145;49.902;8.680;'2023-05-14 13:05:06';100000;;;17;40
30343;BME280;17145;49.902;8.680;'2023-05-14 13:07:35';100000;;;17;40
30343;BME280;17145;49.902;8.680;'2023-05-14 13:10:05';100000;;;17;40
30343;BME280;17145;49.902;8.680;'2023-05-14 13:12:34';100000;;;17;40
30343;BME280;17145;49.902;8.680;'2023-05-14 13:15:04';99990;;;17;40
30343;BME280;17145;49.902;8.680;'2023-05-14 13:17:33';99990;;;17;40
30343;BME280;17145;49.902;8.680;'2023-05-14 13:20:01';99990;;;17;40
30343;BME280;17145;49.902;8.680;'2023-05-14 13:22:29';99980;;;17;39
30343;BME280;17145;49.902;8.680;'2023-05-14 13:24:56';99980;;;18;40
30343;BME280;17145;49.902;8.680;'2023-05-14 13:27:24';99980;;;18;40
30343;BME280;17145;49.902;8.680;'2023-05-14 13:29:52';99980;;;18;39
30343;BME280;17145;49.902;8.680;'2023-05-14 13:32:19';99980;;;18;38
30343;BME280;17145;49.902;8.680;'2023-05-14 13:34:47';99980;;;18;39
30343;BME280;17145;49.902;8.680;'2023-05-14 13:37:15';99980;;;18;39
30343;BME280;17145;49.902;8.680;'2023-05-14 13:39:47';99980;;;18;38
30343;BME280;17145;49.902;8.680;'2023-05-14 13:42:15';99970;;;18;37
30343;BME280;17145;49.902;8.680;'2023-05-14 13:44:43';99970;;;18;39
30343;BME280;17145;49.902;8.680;'2023-05-14 13:47:11';99970;;;18;39
30343;BME280;17145;49.902;8.680;'2023-05-14 13:49:38';99970;;;18;38
30343;BME280;17145;49.902;8.680;'2023-05-14 13:52:07';99960;;;18;38
30343;BME280;17145;49.902;8.680;'2023-05-14 13:54:35';99960;;;18;37
30343;BME280;17145;49.902;8.680;'2023-05-14 13:57:08';99960;;;18;37
30343;BME280;17145;49.902;8.680;'2023-05-14 13:59:36';99960;;;19;38
30343;BME280;17145;49.902;8.680;'2023-05-14 14:02:07';99960;;;19;37
30343;BME280;17145;49.902;8.680;'2023-05-14 14:04:34';99950;;;19;37
30343;BME280;17145;49.902;8.680;'2023-05-14 14:07:08';99960;;;19;36
30343;BME280;17145;49.902;8.680;'2023-05-14 14:09:36';99960;;;19;36
30343;BME280;17145;49.902;8.680;'2023-05-14 14:12:08';99960;;;19;36
30343;BME280;17145;49.902;8.680;'2023-05-14 14:14:37';99950;;;19;35
30343;BME280;17145;49.902;8.680;'2023-05-14 14:17:11';99950;;;19;36
30343;BME280;17145;49.902;8.680;'2023-05-14 14:19:39';99950;;;19;35
30343;BME280;17145;49.902;8.680;'2023-05-14 14:22:07';99940;;;19;35
30343;BME280;17145;49.902;8.680;'2023-05-14 14:24:35';99940;;;19;35
30343;BME280;17145;49.902;8.680;'2023-05-14 14:27:03';99940;;;19;35
30343;BME280;17145;49.902;8.680;'2023-05-14 14:29:34';99940;;;19;35
30343;BME280;17145;49.902;8.680;'2023-05-14 14:32:02';99930;;;19;35
30343;BME280;17145;49.902;8.680;'2023-05-14 14:34:29';99930;;;19;35
30343;BME280;17145;49.902;8.680;'2023-05-14 14:36:56';99920;;;19;35
30343;BME280;17145;49.902;8.680;'2023-05-14 14:39:24';99920;;;19;36
30343;BME280;17145;49.902;8.680;'2023-05-14 14:41:51';99920;;;19;36
30343;BME280;17145;49.902;8.680;'2023-05-14 14:44:19';99910;;;19;35
30343;BME280;17145;49.902;8.680;'2023-05-14 14:46:46';99900;;;20;34
30343;BME280;17145;49.902;8.680;'2023-05-14 14:49:13';99890;;;20;36
30343;BME280;17145;49.902;8.680;'2023-05-14 14:51:41';99890;;;19;35
30343;BME280;17145;49.902;8.680;'2023-05-14 14:54:08';99890;;;19;35
30343;BME280;17145;49.902;8.680;'2023-05-14 14:56:37';99890;;;19;34
30343;BME280;17145;49.902;8.680;'2023-05-14 14:59:04';99880;;;19;35
30343;BME280;17145;49.902;8.680;'2023-05-14 15:01:32';99880;;;20;36
30343;BME280;17145;49.902;8.680;'2023-05-14 15:03:59';99880;;;20;35
30343;BME280;17145;49.902;8.680;'2023-05-14 15:06:26';99880;;;20;35
30343;BME280;17145;49.902;8.680;'2023-05-14 15:08:54';99880;;;20;33
30343;BME280;17145;49.902;8.680;'2023-05-14 15:11:21';99870;;;20;35
30343;BME280;17145;49.902;8.680;'2023-05-14 15:13:48';99870;;;21;34
30343;BME280;17145;49.902;8.680;'2023-05-14 15:16:15';99860;;;21;31
30343;BME280;17145;49.902;8.680;'2023-05-14 15:18:43';99860;;;22;32
30343;BME280;17145;49.902;8.680;'2023-05-14 15:21:10';99860;;;22;32
30343;BME280;17145;49.902;8.680;'2023-05-14 15:23:38';99850;;;22;32
30343;BME280;17145;49.902;8.680;'2023-05-14 15:26:05';99850;;;23;31
30343;BME280;17145;49.902;8.680;'2023-05-14 15:28:33';99850;;;23;30
30343;BME280;17145;49.902;8.680;'2023-05-14 15:31:06';99840;;;23;30
30343;BME280;17145;49.902;8.680;'2023-05-14 15:33:35';99840;;;22;30
30343;BME280;17145;49.902;8.680;'2023-05-14 15:36:04';99840;;;22;30
30343;BME280;17145;49.902;8.680;'2023-05-14 15:38:31';99830;;;22;30
30343;BME280;17145;49.902;8.680;'2023-05-14 15:40:59';99830;;;23;31
30343;BME280;17145;49.902;8.680;'2023-05-14 15:43:26';99820;;;23;30
30343;BME280;17145;49.902;8.680;'2023-05-14 15:45:54';99820;;;23;30
30343;BME280;17145;49.902;8.680;'2023-05-14 15:48:21';99820;;;23;30
30343;BME280;17145;49.902;8.680;'2023-05-14 15:50:49';99820;;;22;30
30343;BME280;17145;49.902;8.680;'2023-05-14 15:53:16';99820;;;22;30
30343;BME280;17145;49.902;8.680;'2023-05-14 15:55:44';99820;;;22;29
30343;BME280;17145;49.902;8.680;'2023-05-14 15:58:11';99820;;;23;30
30343;BME280;17145;49.902;8.680;'2023-05-14 16:00:38';99820;;;22;30
30343;BME280;17145;49.902;8.680;'2023-05-14 16:03:07';99810;;;22;31
30343;BME280;17145;49.902;8.680;'2023-05-14 16:05:34';99800;;;22;30
30343;BME280;17145;49.902;8.680;'2023-05-14 16:08:02';99800;;;22;29
30343;BME280;17145;49.902;8.680;'2023-05-14 16:10:30';99800;;;22;30
30343;BME280;17145;49.902;8.680;'2023-05-14 16:12:57';99790;;;22;29